Time,TemperatureF,DewpointF,PressureIn,WindDirection,WindDirectionDegrees,WindSpeedMPH,WindSpeedGustMPH,Humidity,HourlyPrecipIn,Conditions,Clouds,dailyrainin,SoftwareType,DateUTC
2013-03-30 00:00:00,26.4,23.6,30.26,WNW,303,0.0,0.0,89,0.00,,---,0.00,VWS V13.01,2013-03-30 04:00:00,
2013-03-30 00:04:00,26.3,23.8,30.26,WNW,303,0.0,0.0,90,0.00,,---,0.00,VWS V13.01,2013-03-30 04:04:00,
2013-03-30 00:10:00,26.3,23.8,30.26,WNW,303,0.0,0.0,90,0.00,,---,0.00,VWS V13.01,2013-03-30 04:10:00,
2013-03-30 00:15:00,26.2,23.7,30.25,WNW,303,0.0,0.0,90,0.00,,---,0.00,VWS V13.01,2013-03-30 04:15:00,
2013-03-30 00:20:00,26.0,23.5,30.25,WNW,303,0.0,0.0,90,0.00,,---,0.00,VWS V13.01,2013-03-30 04:20:00,
2013-03-30 00:25:00,25.9,23.4,30.25,WNW,303,0.0,0.0,90,0.00,,---,0.00,VWS V13.01,2013-03-30 04:25:00,
2013-03-30 00:30:00,25.8,23.5,30.25,WNW,303,0.0,0.0,91,0.00,,---,0.00,VWS V13.01,2013-03-30 04:30:00,
2013-03-30 00:35:00,25.7,23.2,30.25,WNW,303,0.0,0.0,90,0.00,,---,0.00,VWS V13.01,2013-03-30 04:35:00,
2013-03-30 00:40:00,25.7,23.4,30.25,WNW,303,0.0,0.0,91,0.00,,---,0.00,VWS V13.01,2013-03-30 04:40:00,
2013-03-30 00:45:00,25.6,23.3,30.25,WNW,303,0.0,0.0,91,0.00,,---,0.00,VWS V13.01,2013-03-30 04:45:00,
2013-03-30 00:50:00,25.5,23.2,30.25,WNW,303,0.0,0.0,91,0.00,,---,0.00,VWS V13.01,2013-03-30 04:50:00,
2013-03-30 00:55:00,25.5,23.5,30.25,WNW,303,0.0,0.0,92,0.00,,---,0.00,VWS V13.01,2013-03-30 04:55:00,
2013-03-30 01:02:00,25.4,23.4,30.25,WNW,303,0.0,0.0,92,0.00,,---,0.00,VWS V13.01,2013-03-30 05:02:00,
2013-03-30 01:07:00,25.3,23.3,30.25,WNW,303,0.0,0.0,92,0.00,,---,0.00,VWS V13.01,2013-03-30 05:07:00,
2013-03-30 01:12:00,25.1,23.1,30.25,WNW,303,0.0,0.0,92,0.00,,---,0.00,VWS V13.01,2013-03-30 05:12:00,
2013-03-30 01:17:00,24.9,22.9,30.26,WNW,303,0.0,0.0,92,0.00,,---,0.00,VWS V13.01,2013-03-30 05:17:00,
2013-03-30 01:22:00,24.8,22.8,30.26,WNW,303,0.0,0.0,92,0.00,,---,0.00,VWS V13.01,2013-03-30 05:22:00,
2013-03-30 01:28:00,24.7,22.7,30.26,WNW,303,0.0,0.0,92,0.00,,---,0.00,VWS V13.01,2013-03-30 05:28:00,
2013-03-30 01:33:00,24.7,22.7,30.26,WNW,303,0.0,0.0,92,0.00,,---,0.00,VWS V13.01,2013-03-30 05:33:00,
2013-03-30 01:38:00,24.7,22.7,30.26,WNW,303,0.0,0.0,92,0.00,,---,0.00,VWS V13.01,2013-03-30 05:38:00,
2013-03-30 01:43:00,24.7,23.0,30.26,WNW,303,0.0,0.0,93,0.00,,---,0.00,VWS V13.01,2013-03-30 05:43:00,
2013-03-30 01:49:00,24.6,22.9,30.26,WNW,303,0.0,0.0,93,0.00,,---,0.00,VWS V13.01,2013-03-30 05:49:00,
2013-03-30 01:54:00,24.6,22.9,30.26,WNW,303,0.0,0.0,93,0.00,,---,0.00,VWS V13.01,2013-03-30 05:54:00,
2013-03-30 01:59:00,24.5,22.8,30.26,WNW,303,0.0,0.0,93,0.00,,---,0.00,VWS V13.01,2013-03-30 05:59:00,
2013-03-30 02:04:00,24.4,22.7,30.26,WNW,303,0.0,0.0,93,0.00,,---,0.00,VWS V13.01,2013-03-30 06:04:00,
2013-03-30 02:09:00,24.4,22.7,30.26,WNW,303,0.0,0.0,93,0.00,,---,0.00,VWS V13.01,2013-03-30 06:09:00,
2013-03-30 02:14:00,24.3,22.6,30.26,WNW,303,0.0,0.0,93,0.00,,---,0.00,VWS V13.01,2013-03-30 06:14:00,
2013-03-30 02:20:00,24.2,22.5,30.26,WNW,303,0.0,0.0,93,0.00,,---,0.00,VWS V13.01,2013-03-30 06:20:00,
2013-03-30 02:25:00,24.0,22.3,30.26,WNW,303,0.0,0.0,93,0.00,,---,0.00,VWS V13.01,2013-03-30 06:25:00,
2013-03-30 02:30:00,23.9,22.2,30.26,WNW,303,0.0,0.0,93,0.00,,---,0.00,VWS V13.01,2013-03-30 06:30:00,
2013-03-30 02:35:00,23.8,22.1,30.26,WNW,303,0.0,0.0,93,0.00,,---,0.00,VWS V13.01,2013-03-30 06:35:00,
2013-03-30 02:40:00,23.8,22.1,30.26,WNW,303,0.0,0.0,93,0.00,,---,0.00,VWS V13.01,2013-03-30 06:40:00,
2013-03-30 02:45:00,23.7,22.0,30.27,WNW,303,0.0,0.0,93,0.00,,---,0.00,VWS V13.01,2013-03-30 06:45:00,
2013-03-30 02:50:00,23.7,22.2,30.26,WNW,303,0.0,0.0,94,0.00,,---,0.00,VWS V13.01,2013-03-30 06:50:00,
2013-03-30 02:56:00,23.6,21.9,30.26,WNW,303,0.0,0.0,93,0.00,,---,0.00,VWS V13.01,2013-03-30 06:56:00,
2013-03-30 03:01:00,23.5,21.8,30.26,WNW,303,0.0,0.0,93,0.00,,---,0.00,VWS V13.01,2013-03-30 07:01:00,
2013-03-30 03:06:00,23.3,21.6,30.27,WNW,303,0.0,0.0,93,0.00,,---,0.00,VWS V13.01,2013-03-30 07:06:00,
2013-03-30 03:11:00,23.1,21.4,30.27,WNW,303,0.0,0.0,93,0.00,,---,0.00,VWS V13.01,2013-03-30 07:11:00,
2013-03-30 03:16:00,22.9,21.2,30.26,WNW,303,0.0,0.0,93,0.00,,---,0.00,VWS V13.01,2013-03-30 07:16:00,
2013-03-30 03:21:00,22.9,21.2,30.26,WNW,303,0.0,0.0,93,0.00,,---,0.00,VWS V13.01,2013-03-30 07:21:00,
2013-03-30 03:27:00,22.9,21.4,30.26,WNW,303,0.0,0.0,94,0.00,,---,0.00,VWS V13.01,2013-03-30 07:27:00,
2013-03-30 03:32:00,22.9,21.4,30.26,WNW,303,0.0,0.0,94,0.00,,---,0.00,VWS V13.01,2013-03-30 07:32:00,
2013-03-30 03:37:00,22.8,21.3,30.27,WNW,303,0.0,0.0,94,0.00,,---,0.00,VWS V13.01,2013-03-30 07:37:00,
2013-03-30 03:42:00,22.7,21.2,30.26,WNW,303,0.0,0.0,94,0.00,,---,0.00,VWS V13.01,2013-03-30 07:42:00,
2013-03-30 03:47:00,22.7,21.0,30.26,WNW,303,0.0,0.0,93,0.00,,---,0.00,VWS V13.01,2013-03-30 07:47:00,
2013-03-30 03:53:00,22.6,21.1,30.26,WNW,303,0.0,0.0,94,0.00,,---,0.00,VWS V13.01,2013-03-30 07:53:00,
2013-03-30 03:58:00,22.5,21.0,30.26,WNW,303,0.0,0.0,94,0.00,,---,0.00,VWS V13.01,2013-03-30 07:58:00,
2013-03-30 04:03:00,22.3,20.8,30.26,WNW,303,0.0,0.0,94,0.00,,---,0.00,VWS V13.01,2013-03-30 08:03:00,
2013-03-30 04:08:00,22.1,20.6,30.26,WNW,303,0.0,0.0,94,0.00,,---,0.00,VWS V13.01,2013-03-30 08:08:00,
2013-03-30 04:14:00,22.0,20.3,30.26,WNW,303,0.0,0.0,93,0.00,,---,0.00,VWS V13.01,2013-03-30 08:14:00,
2013-03-30 04:19:00,21.9,20.2,30.26,WNW,303,0.0,0.0,93,0.00,,---,0.00,VWS V13.01,2013-03-30 08:19:00,
2013-03-30 04:24:00,21.8,20.1,30.26,WNW,303,0.0,0.0,93,0.00,,---,0.00,VWS V13.01,2013-03-30 08:24:00,
2013-03-30 04:29:00,21.8,20.3,30.26,WNW,303,0.0,0.0,94,0.00,,---,0.00,VWS V13.01,2013-03-30 08:29:00,
2013-03-30 04:34:00,21.8,20.3,30.27,WNW,303,0.0,0.0,94,0.00,,---,0.00,VWS V13.01,2013-03-30 08:34:00,
2013-03-30 04:39:00,21.8,20.3,30.27,WNW,303,0.0,0.0,94,0.00,,---,0.00,VWS V13.01,2013-03-30 08:39:00,
2013-03-30 04:44:00,21.7,20.2,30.27,WNW,303,0.0,0.0,94,0.00,,---,0.00,VWS V13.01,2013-03-30 08:44:00,
2013-03-30 04:50:00,21.7,20.2,30.27,WNW,303,0.0,0.0,94,0.00,,---,0.00,VWS V13.01,2013-03-30 08:50:00,
2013-03-30 04:55:00,21.6,20.1,30.27,WNW,303,0.0,0.0,94,0.00,,---,0.00,VWS V13.01,2013-03-30 08:55:00,
2013-03-30 05:00:00,21.7,20.2,30.26,WNW,303,0.0,0.0,94,0.00,,---,0.00,VWS V13.01,2013-03-30 09:00:00,
2013-03-30 05:05:00,21.8,20.3,30.27,WNW,303,0.0,0.0,94,0.00,,---,0.00,VWS V13.01,2013-03-30 09:05:00,
2013-03-30 05:11:00,21.8,20.3,30.27,WNW,303,0.0,0.0,94,0.00,,---,0.00,VWS V13.01,2013-03-30 09:11:00,
2013-03-30 05:16:00,21.8,20.3,30.27,WNW,303,0.0,0.0,94,0.00,,---,0.00,VWS V13.01,2013-03-30 09:16:00,
2013-03-30 05:22:00,21.7,20.2,30.26,WNW,303,0.0,0.0,94,0.00,,---,0.00,VWS V13.01,2013-03-30 09:22:00,
2013-03-30 05:27:00,21.6,20.1,30.26,WNW,303,0.0,0.0,94,0.00,,---,0.00,VWS V13.01,2013-03-30 09:27:00,
2013-03-30 05:32:00,21.6,20.1,30.26,WNW,303,0.0,0.0,94,0.00,,---,0.00,VWS V13.01,2013-03-30 09:32:00,
2013-03-30 05:34:00,21.5,20.0,30.26,WNW,303,0.0,0.0,94,0.00,,---,0.00,VWS V13.01,2013-03-30 09:34:00,
2013-03-30 05:39:00,21.3,19.9,30.26,WNW,303,0.0,0.0,94,0.00,,---,0.00,VWS V13.01,2013-03-30 09:39:00,
2013-03-30 05:44:00,21.2,19.8,30.26,WNW,303,0.0,0.0,94,0.00,,---,0.00,VWS V13.01,2013-03-30 09:44:00,
2013-03-30 05:50:00,21.1,19.6,30.26,WNW,303,0.0,0.0,94,0.00,,---,0.00,VWS V13.01,2013-03-30 09:50:00,
2013-03-30 05:55:00,21.0,19.5,30.26,WNW,303,0.0,0.0,94,0.00,,---,0.00,VWS V13.01,2013-03-30 09:55:00,
2013-03-30 06:00:00,21.1,19.6,30.26,WNW,303,0.0,0.0,94,0.00,,---,0.00,VWS V13.01,2013-03-30 10:00:00,
2013-03-30 06:05:00,21.2,19.8,30.27,WNW,303,0.0,0.0,94,0.00,,---,0.00,VWS V13.01,2013-03-30 10:05:00,
2013-03-30 06:10:00,21.2,19.8,30.27,WNW,303,0.0,0.0,94,0.00,,---,0.00,VWS V13.01,2013-03-30 10:10:00,
2013-03-30 06:15:00,21.2,19.8,30.27,WNW,303,0.0,0.0,94,0.00,,---,0.00,VWS V13.01,2013-03-30 10:15:00,
2013-03-30 06:21:00,21.1,19.6,30.27,WNW,303,0.0,0.0,94,0.00,,---,0.00,VWS V13.01,2013-03-30 10:21:00,
2013-03-30 06:26:00,21.1,19.6,30.27,WNW,303,0.0,0.0,94,0.00,,---,0.00,VWS V13.01,2013-03-30 10:26:00,
2013-03-30 06:31:00,21.1,19.6,30.27,WNW,303,0.0,0.0,94,0.00,,---,0.00,VWS V13.01,2013-03-30 10:31:00,
2013-03-30 06:36:00,21.1,19.6,30.28,WNW,303,0.0,0.0,94,0.00,,---,0.00,VWS V13.01,2013-03-30 10:36:00,
2013-03-30 06:42:00,20.9,19.5,30.28,WNW,303,0.0,0.0,94,0.00,,---,0.00,VWS V13.01,2013-03-30 10:42:00,
2013-03-30 06:47:00,20.8,19.4,30.28,WNW,303,0.0,0.0,94,0.00,,---,0.00,VWS V13.01,2013-03-30 10:47:00,
2013-03-30 06:52:00,20.7,19.2,30.28,WNW,303,0.0,0.0,94,0.00,,---,0.00,VWS V13.01,2013-03-30 10:52:00,
2013-03-30 06:58:00,20.7,19.2,30.29,WNW,303,0.0,0.0,94,0.00,,---,0.00,VWS V13.01,2013-03-30 10:58:00,
2013-03-30 07:03:00,20.6,19.1,30.29,WNW,303,0.0,0.0,94,0.00,,---,0.00,VWS V13.01,2013-03-30 11:03:00,
2013-03-30 07:08:00,20.6,19.1,30.29,WNW,303,0.0,0.0,94,0.00,,---,0.00,VWS V13.01,2013-03-30 11:08:00,
2013-03-30 07:13:00,20.6,19.1,30.29,WNW,303,0.0,0.0,94,0.00,,---,0.00,VWS V13.01,2013-03-30 11:13:00,
2013-03-30 07:18:00,20.6,19.1,30.30,WNW,303,0.0,0.0,94,0.00,,---,0.00,VWS V13.01,2013-03-30 11:18:00,
2013-03-30 07:23:00,20.7,19.2,30.30,WNW,303,0.0,0.0,94,0.00,,---,0.00,VWS V13.01,2013-03-30 11:23:00,
2013-03-30 07:29:00,20.7,19.2,30.30,WNW,303,0.0,0.0,94,0.00,,---,0.00,VWS V13.01,2013-03-30 11:29:00,
2013-03-30 07:34:00,20.9,19.5,30.29,WNW,303,0.0,0.0,94,0.00,,---,0.00,VWS V13.01,2013-03-30 11:34:00,
2013-03-30 07:39:00,21.5,20.0,30.30,WNW,303,0.0,0.0,94,0.00,,---,0.00,VWS V13.01,2013-03-30 11:39:00,
2013-03-30 07:44:00,22.3,21.1,30.30,WNW,303,0.0,0.0,95,0.00,,---,0.00,VWS V13.01,2013-03-30 11:44:00,
2013-03-30 07:49:00,22.7,21.2,30.30,WNW,303,0.0,0.0,94,0.00,,---,0.00,VWS V13.01,2013-03-30 11:49:00,
2013-03-30 07:55:00,23.0,21.8,30.30,WNW,303,0.0,0.0,95,0.00,,---,0.00,VWS V13.01,2013-03-30 11:55:00,
2013-03-30 08:00:00,23.3,21.8,30.30,WNW,303,0.0,0.0,94,0.00,,---,0.00,VWS V13.01,2013-03-30 12:00:00,
2013-03-30 08:05:00,23.4,21.9,30.30,WNW,303,0.0,0.0,94,0.00,,---,0.00,VWS V13.01,2013-03-30 12:05:00,
2013-03-30 08:10:00,23.8,22.3,30.30,WNW,303,0.0,0.0,94,0.00,,---,0.00,VWS V13.01,2013-03-30 12:10:00,
2013-03-30 08:15:00,24.3,22.8,30.30,WNW,303,0.0,0.0,94,0.00,,---,0.00,VWS V13.01,2013-03-30 12:15:00,
2013-03-30 08:21:00,24.6,23.1,30.30,WNW,303,0.0,0.0,94,0.00,,---,0.00,VWS V13.01,2013-03-30 12:21:00,
2013-03-30 08:27:00,25.1,23.6,30.30,WNW,303,0.0,0.0,94,0.00,,---,0.00,VWS V13.01,2013-03-30 12:27:00,
2013-03-30 08:33:00,25.6,24.1,30.31,WNW,303,0.0,1.0,94,0.00,,---,0.00,VWS V13.01,2013-03-30 12:33:00,
2013-03-30 08:38:00,26.0,24.3,30.31,WNW,303,0.0,1.0,93,0.00,,---,0.00,VWS V13.01,2013-03-30 12:38:00,
2013-03-30 08:43:00,26.3,24.6,30.31,WNW,303,0.0,1.0,93,0.00,,---,0.00,VWS V13.01,2013-03-30 12:43:00,
2013-03-30 08:48:00,26.7,25.0,30.30,WNW,303,0.0,1.0,93,0.00,,---,0.00,VWS V13.01,2013-03-30 12:48:00,
2013-03-30 08:54:00,27.1,25.1,30.30,WNW,303,0.0,1.0,92,0.00,,---,0.00,VWS V13.01,2013-03-30 12:54:00,
2013-03-30 08:59:00,27.4,25.4,30.31,WNW,303,0.0,1.0,92,0.00,,---,0.00,VWS V13.01,2013-03-30 12:59:00,
2013-03-30 09:04:00,27.8,25.5,30.31,WNW,303,0.0,0.0,91,0.00,,---,0.00,VWS V13.01,2013-03-30 13:04:00,
2013-03-30 09:10:00,28.5,26.2,30.31,WNW,303,0.0,1.0,91,0.00,,---,0.00,VWS V13.01,2013-03-30 13:10:00,
2013-03-30 09:15:00,29.0,26.7,30.31,WNW,303,0.0,1.0,91,0.00,,---,0.00,VWS V13.01,2013-03-30 13:15:00,
2013-03-30 09:20:00,29.4,26.8,30.31,WNW,303,0.0,1.0,90,0.00,,---,0.00,VWS V13.01,2013-03-30 13:20:00,
2013-03-30 09:25:00,30.1,27.5,30.30,WNW,303,0.0,1.0,90,0.00,,---,0.00,VWS V13.01,2013-03-30 13:25:00,
2013-03-30 09:30:00,30.8,28.0,30.31,WNW,303,0.0,0.0,89,0.00,,---,0.00,VWS V13.01,2013-03-30 13:30:00,
2013-03-30 09:35:00,31.5,28.1,30.31,WNW,303,0.0,0.0,87,0.00,,---,0.00,VWS V13.01,2013-03-30 13:35:00,
2013-03-30 09:41:00,31.9,28.2,30.31,WNW,303,0.0,0.0,86,0.00,,---,0.00,VWS V13.01,2013-03-30 13:41:00,
2013-03-30 09:46:00,32.1,27.5,30.31,WNW,303,0.0,0.0,83,0.00,,---,0.00,VWS V13.01,2013-03-30 13:46:00,
2013-03-30 09:51:00,32.4,27.8,30.31,WNW,303,0.0,0.0,83,0.00,,---,0.00,VWS V13.01,2013-03-30 13:51:00,
2013-03-30 09:57:00,33.0,28.1,30.31,WNW,303,0.0,1.0,82,0.00,,---,0.00,VWS V13.01,2013-03-30 13:57:00,
2013-03-30 10:02:00,33.8,28.3,30.31,WNW,303,0.0,0.0,80,0.00,,---,0.00,VWS V13.01,2013-03-30 14:02:00,
2013-03-30 10:07:00,34.4,28.3,30.31,WNW,303,0.0,0.0,78,0.00,,---,0.00,VWS V13.01,2013-03-30 14:07:00,
2013-03-30 10:12:00,35.4,28.6,30.30,WNW,303,0.0,0.0,76,0.00,,---,0.00,VWS V13.01,2013-03-30 14:12:00,
2013-03-30 10:18:00,36.3,28.8,30.30,WNW,303,0.0,0.0,74,0.00,,---,0.00,VWS V13.01,2013-03-30 14:18:00,
2013-03-30 10:23:00,37.1,29.6,30.30,WNW,303,0.0,0.0,74,0.00,,---,0.00,VWS V13.01,2013-03-30 14:23:00,
2013-03-30 10:28:00,38.2,30.3,30.30,WNW,303,0.0,0.0,73,0.00,,---,0.00,VWS V13.01,2013-03-30 14:28:00,
2013-03-30 10:34:00,39.5,31.2,30.30,WNW,303,0.0,0.0,72,0.00,,---,0.00,VWS V13.01,2013-03-30 14:34:00,
2013-03-30 10:39:00,40.6,32.0,30.29,WNW,303,0.0,0.0,71,0.00,,---,0.00,VWS V13.01,2013-03-30 14:39:00,
2013-03-30 10:44:00,41.6,32.2,30.29,WNW,303,0.0,0.0,69,0.00,,---,0.00,VWS V13.01,2013-03-30 14:44:00,
2013-03-30 10:49:00,42.9,30.8,30.29,WNW,303,0.0,1.0,62,0.00,,---,0.00,VWS V13.01,2013-03-30 14:49:00,
2013-03-30 10:54:00,42.5,29.2,30.28,WNW,303,0.0,2.0,59,0.00,,---,0.00,VWS V13.01,2013-03-30 14:54:00,
2013-03-30 11:00:00,42.1,28.4,30.28,WNW,303,0.0,2.0,58,0.00,,---,0.00,VWS V13.01,2013-03-30 15:00:00,
2013-03-30 11:05:00,42.3,28.2,30.28,WNW,303,0.0,1.0,57,0.00,,---,0.00,VWS V13.01,2013-03-30 15:05:00,
2013-03-30 11:10:00,42.7,28.1,30.28,WNW,303,0.0,2.0,56,0.00,,---,0.00,VWS V13.01,2013-03-30 15:10:00,
2013-03-30 11:15:00,42.9,27.0,30.28,WNW,303,0.0,3.0,53,0.00,,---,0.00,VWS V13.01,2013-03-30 15:15:00,
2013-03-30 11:20:00,43.1,26.2,30.28,WNW,303,0.0,4.0,51,0.00,,---,0.00,VWS V13.01,2013-03-30 15:20:00,
2013-03-30 11:26:00,43.5,27.1,30.27,WNW,297,0.0,5.0,52,0.00,,---,0.00,VWS V13.01,2013-03-30 15:26:00,
2013-03-30 11:31:00,43.9,27.0,30.27,West,272,2.0,8.0,51,0.00,,---,0.00,VWS V13.01,2013-03-30 15:31:00,
2013-03-30 11:36:00,44.2,27.2,30.27,WNW,294,0.0,8.0,51,0.00,,---,0.00,VWS V13.01,2013-03-30 15:36:00,
2013-03-30 11:41:00,44.6,28.5,30.27,NNW,328,0.0,8.0,53,0.00,,---,0.00,VWS V13.01,2013-03-30 15:41:00,
2013-03-30 11:47:00,44.7,26.7,30.27,NNW,328,0.0,8.0,49,0.00,,---,0.00,VWS V13.01,2013-03-30 15:47:00,
2013-03-30 11:52:00,45.0,26.0,30.26,NNW,328,0.0,8.0,47,0.00,,---,0.00,VWS V13.01,2013-03-30 15:52:00,
2013-03-30 11:57:00,45.0,26.5,30.26,ESE,112,0.0,8.0,48,0.00,,---,0.00,VWS V13.01,2013-03-30 15:57:00,
2013-03-30 12:03:00,45.2,27.2,30.26,WSW,245,0.0,6.0,49,0.00,,---,0.00,VWS V13.01,2013-03-30 16:03:00,
2013-03-30 12:08:00,45.4,29.7,30.26,West,263,7.0,13.0,54,0.00,,---,0.00,VWS V13.01,2013-03-30 16:08:00,
2013-03-30 12:13:00,45.3,26.8,30.26,WNW,288,9.0,13.0,48,0.00,,---,0.00,VWS V13.01,2013-03-30 16:13:00,
2013-03-30 12:18:00,45.5,27.5,30.26,WNW,288,7.0,13.0,49,0.00,,---,0.00,VWS V13.01,2013-03-30 16:18:00,
2013-03-30 12:23:00,45.5,25.9,30.26,North,360,3.0,13.0,46,0.00,,---,0.00,VWS V13.01,2013-03-30 16:23:00,
2013-03-30 12:28:00,45.8,26.2,30.25,NNE,31,0.0,13.0,46,0.00,,---,0.00,VWS V13.01,2013-03-30 16:28:00,
2013-03-30 12:33:00,46.3,26.1,30.25,West,267,5.0,9.0,45,0.00,,---,0.00,VWS V13.01,2013-03-30 16:33:00,
2013-03-30 12:39:00,46.4,27.3,30.24,West,260,0.0,9.0,47,0.00,,---,0.00,VWS V13.01,2013-03-30 16:39:00,
2013-03-30 12:44:00,46.9,27.7,30.24,NW,321,0.0,9.0,47,0.00,,---,0.00,VWS V13.01,2013-03-30 16:44:00,
2013-03-30 12:49:00,47.1,26.9,30.24,North,9,1.0,9.0,45,0.00,,---,0.00,VWS V13.01,2013-03-30 16:49:00,
2013-03-30 12:54:00,47.0,28.9,30.24,WNW,292,12.0,12.0,49,0.00,,---,0.00,VWS V13.01,2013-03-30 16:54:00,
2013-03-30 12:59:00,47.2,28.0,30.24,West,264,9.0,13.0,47,0.00,,---,0.00,VWS V13.01,2013-03-30 16:59:00,
2013-03-30 13:05:00,46.9,26.1,30.23,SSE,147,0.0,8.0,44,0.00,,---,0.00,VWS V13.01,2013-03-30 17:05:00,
2013-03-30 13:10:00,47.0,25.7,30.22,SW,232,4.0,11.0,43,0.00,,---,0.00,VWS V13.01,2013-03-30 17:10:00,
2013-03-30 13:15:00,47.4,27.7,30.22,NW,310,10.0,14.0,46,0.00,,---,0.00,VWS V13.01,2013-03-30 17:15:00,
2013-03-30 13:21:00,47.9,27.6,30.22,NW,326,4.0,14.0,45,0.00,,---,0.00,VWS V13.01,2013-03-30 17:21:00,
2013-03-30 13:26:00,47.8,28.0,30.22,West,279,9.0,14.0,46,0.00,,---,0.00,VWS V13.01,2013-03-30 17:26:00,
2013-03-30 13:32:00,47.6,25.1,30.22,WNW,303,7.0,11.0,41,0.00,,---,0.00,VWS V13.01,2013-03-30 17:32:00,
2013-03-30 13:37:00,47.5,26.1,30.22,WNW,293,7.0,13.0,43,0.00,,---,0.00,VWS V13.01,2013-03-30 17:37:00,
2013-03-30 13:42:00,47.7,26.3,30.22,West,263,1.0,16.0,43,0.00,,---,0.00,VWS V13.01,2013-03-30 17:42:00,
2013-03-30 13:47:00,47.8,25.8,30.21,SW,226,6.0,16.0,42,0.00,,---,0.00,VWS V13.01,2013-03-30 17:47:00,
2013-03-30 13:52:00,48.0,26.0,30.21,SW,229,10.0,16.0,42,0.00,,---,0.00,VWS V13.01,2013-03-30 17:52:00,
2013-03-30 13:58:00,48.3,26.9,30.21,West,280,7.0,16.0,43,0.00,,---,0.00,VWS V13.01,2013-03-30 17:58:00,
2013-03-30 14:03:00,48.2,27.3,30.21,West,271,9.0,15.0,44,0.00,,---,0.00,VWS V13.01,2013-03-30 18:03:00,
2013-03-30 14:08:00,48.1,26.7,30.21,WSW,248,7.0,16.0,43,0.00,,---,0.00,VWS V13.01,2013-03-30 18:08:00,
2013-03-30 14:13:00,48.2,26.8,30.20,West,273,7.0,16.0,43,0.00,,---,0.00,VWS V13.01,2013-03-30 18:13:00,
2013-03-30 14:18:00,48.3,30.0,30.21,WNW,284,5.0,16.0,49,0.00,,---,0.00,VWS V13.01,2013-03-30 18:18:00,
2013-03-30 14:23:00,48.6,27.7,30.20,NW,315,3.0,16.0,44,0.00,,---,0.00,VWS V13.01,2013-03-30 18:23:00,
2013-03-30 14:29:00,48.7,26.6,30.20,West,261,2.0,16.0,42,0.00,,---,0.00,VWS V13.01,2013-03-30 18:29:00,
2013-03-30 14:34:00,49.0,26.9,30.20,West,279,15.0,15.0,42,0.00,,---,0.00,VWS V13.01,2013-03-30 18:34:00,
2013-03-30 14:39:00,48.5,27.0,30.19,West,281,8.0,18.0,43,0.00,,---,0.00,VWS V13.01,2013-03-30 18:39:00,
2013-03-30 14:44:00,48.5,29.7,30.19,WNW,284,10.0,18.0,48,0.00,,---,0.00,VWS V13.01,2013-03-30 18:44:00,
2013-03-30 14:50:00,48.7,26.6,30.19,West,277,0.0,18.0,42,0.00,,---,0.00,VWS V13.01,2013-03-30 18:50:00,
2013-03-30 14:55:00,48.8,27.9,30.19,WNW,288,8.0,18.0,44,0.00,,---,0.00,VWS V13.01,2013-03-30 18:55:00,
2013-03-30 15:00:00,49.1,27.0,30.18,WNW,298,4.0,18.0,42,0.00,,---,0.00,VWS V13.01,2013-03-30 19:00:00,
2013-03-30 15:05:00,49.1,26.4,30.18,West,277,1.0,12.0,41,0.00,,---,0.00,VWS V13.01,2013-03-30 19:05:00,
2013-03-30 15:10:00,49.0,25.8,30.18,WNW,284,2.0,12.0,40,0.00,,---,0.00,VWS V13.01,2013-03-30 19:10:00,
2013-03-30 15:16:00,49.0,26.9,30.18,WNW,298,0.0,12.0,42,0.00,,---,0.00,VWS V13.01,2013-03-30 19:16:00,
2013-03-30 15:21:00,49.0,26.9,30.18,East,88,0.0,12.0,42,0.00,,---,0.00,VWS V13.01,2013-03-30 19:21:00,
2013-03-30 15:27:00,49.2,26.5,30.17,NE,47,4.0,12.0,41,0.00,,---,0.00,VWS V13.01,2013-03-30 19:27:00,
2013-03-30 15:32:00,49.5,26.8,30.18,WNW,298,6.0,10.0,41,0.00,,---,0.00,VWS V13.01,2013-03-30 19:32:00,
2013-03-30 15:37:00,49.9,27.7,30.17,NNW,339,7.0,13.0,42,0.00,,---,0.00,VWS V13.01,2013-03-30 19:37:00,
2013-03-30 15:42:00,50.0,27.2,30.17,NW,321,5.0,13.0,41,0.00,,---,0.00,VWS V13.01,2013-03-30 19:42:00,
2013-03-30 15:48:00,50.1,29.0,30.17,WNW,296,7.0,13.0,44,0.00,,---,0.00,VWS V13.01,2013-03-30 19:48:00,
2013-03-30 15:53:00,49.9,26.6,30.16,WNW,294,0.0,13.0,40,0.00,,---,0.00,VWS V13.01,2013-03-30 19:53:00,
2013-03-30 15:58:00,50.2,29.1,30.17,WNW,293,4.0,13.0,44,0.00,,---,0.00,VWS V13.01,2013-03-30 19:58:00,
2013-03-30 16:03:00,50.7,26.7,30.16,WNW,284,2.0,7.0,39,0.00,,---,0.00,VWS V13.01,2013-03-30 20:03:00,
2013-03-30 16:08:00,51.2,27.1,30.16,WNW,284,0.0,7.0,39,0.00,,---,0.00,VWS V13.01,2013-03-30 20:08:00,
2013-03-30 16:14:00,51.4,27.9,30.16,NW,322,4.0,16.0,40,0.00,,---,0.00,VWS V13.01,2013-03-30 20:14:00,
2013-03-30 16:19:00,50.8,29.1,30.15,West,277,5.0,16.0,43,0.00,,---,0.00,VWS V13.01,2013-03-30 20:19:00,
2013-03-30 16:24:00,50.8,28.0,30.15,West,276,4.0,16.0,41,0.00,,---,0.00,VWS V13.01,2013-03-30 20:24:00,
2013-03-30 16:30:00,50.9,28.1,30.15,WNW,296,8.0,16.0,41,0.00,,---,0.00,VWS V13.01,2013-03-30 20:30:00,
2013-03-30 16:35:00,50.8,31.8,30.15,WNW,302,12.0,14.0,48,0.00,,---,0.00,VWS V13.01,2013-03-30 20:35:00,
2013-03-30 16:40:00,50.5,28.3,30.15,WNW,292,4.0,16.0,42,0.00,,---,0.00,VWS V13.01,2013-03-30 20:40:00,
2013-03-30 16:45:00,50.5,28.9,30.14,NW,307,1.0,16.0,43,0.00,,---,0.00,VWS V13.01,2013-03-30 20:45:00,
2013-03-30 16:50:00,50.9,28.6,30.14,WNW,302,3.0,16.0,42,0.00,,---,0.00,VWS V13.01,2013-03-30 20:50:00,
2013-03-30 16:57:00,51.0,31.0,30.14,West,280,10.0,16.0,46,0.00,,---,0.00,VWS V13.01,2013-03-30 20:57:00,
2013-03-30 17:02:00,50.9,28.6,30.14,West,281,5.0,12.0,42,0.00,,---,0.00,VWS V13.01,2013-03-30 21:02:00,
2013-03-30 17:07:00,50.8,26.8,30.14,West,281,2.0,12.0,39,0.00,,---,0.00,VWS V13.01,2013-03-30 21:07:00,
2013-03-30 17:13:00,51.0,29.3,30.14,NW,322,6.0,12.0,43,0.00,,---,0.00,VWS V13.01,2013-03-30 21:13:00,
2013-03-30 17:18:00,50.8,29.7,30.13,NW,309,1.0,12.0,44,0.00,,---,0.00,VWS V13.01,2013-03-30 21:18:00,
2013-03-30 17:23:00,50.7,31.7,30.13,WNW,298,9.0,14.0,48,0.00,,---,0.00,VWS V13.01,2013-03-30 21:23:00,
2013-03-30 17:28:00,50.5,30.0,30.13,WNW,300,9.0,14.0,45,0.00,,---,0.00,VWS V13.01,2013-03-30 21:28:00,
2013-03-30 17:34:00,50.2,26.8,30.13,WNW,290,4.0,12.0,40,0.00,,---,0.00,VWS V13.01,2013-03-30 21:34:00,
2013-03-30 17:39:00,50.1,26.7,30.12,NW,311,5.0,12.0,40,0.00,,---,0.00,VWS V13.01,2013-03-30 21:39:00,
2013-03-30 17:44:00,49.9,26.0,30.12,West,263,9.0,12.0,39,0.00,,---,0.00,VWS V13.01,2013-03-30 21:44:00,
2013-03-30 17:49:00,49.7,27.0,30.12,WNW,288,11.0,14.0,41,0.00,,---,0.00,VWS V13.01,2013-03-30 21:49:00,
2013-03-30 17:55:00,49.7,27.6,30.12,WNW,296,8.0,14.0,42,0.00,,---,0.00,VWS V13.01,2013-03-30 21:55:00,
2013-03-30 18:00:00,49.7,27.6,30.12,NW,310,5.0,14.0,42,0.00,,---,0.00,VWS V13.01,2013-03-30 22:00:00,
2013-03-30 18:05:00,49.6,26.3,30.12,NNW,336,0.0,7.0,40,0.00,,---,0.00,VWS V13.01,2013-03-30 22:05:00,
2013-03-30 18:10:00,49.6,26.9,30.11,WNW,298,0.0,7.0,41,0.00,,---,0.00,VWS V13.01,2013-03-30 22:10:00,
2013-03-30 18:15:00,49.5,26.8,30.12,WNW,295,2.0,8.0,41,0.00,,---,0.00,VWS V13.01,2013-03-30 22:15:00,
2013-03-30 18:20:00,49.3,29.4,30.12,WNW,299,6.0,9.0,46,0.00,,---,0.00,VWS V13.01,2013-03-30 22:20:00,
2013-03-30 18:26:00,49.2,29.3,30.12,WNW,299,2.0,9.0,46,0.00,,---,0.00,VWS V13.01,2013-03-30 22:26:00,
2013-03-30 18:31:00,48.4,28.6,30.11,WNW,300,0.0,0.0,46,0.00,,---,0.00,VWS V13.01,2013-03-30 22:31:00,
2013-03-30 18:37:00,47.5,29.3,30.11,WNW,300,0.0,3.0,49,0.00,,---,0.00,VWS V13.01,2013-03-30 22:37:00,
2013-03-30 18:42:00,46.8,28.7,30.11,WNW,300,0.0,3.0,49,0.00,,---,0.00,VWS V13.01,2013-03-30 22:42:00,
2013-03-30 18:48:00,46.1,29.9,30.11,WNW,299,0.0,3.0,53,0.00,,---,0.00,VWS V13.01,2013-03-30 22:48:00,
2013-03-30 18:53:00,45.6,30.4,30.11,WNW,299,0.0,3.0,55,0.00,,---,0.00,VWS V13.01,2013-03-30 22:53:00,
2013-03-30 18:58:00,44.5,30.7,30.11,WNW,300,0.0,3.0,58,0.00,,---,0.00,VWS V13.01,2013-03-30 22:58:00,
2013-03-30 19:03:00,43.7,30.7,30.11,WNW,299,0.0,1.0,60,0.00,,---,0.00,VWS V13.01,2013-03-30 23:03:00,
2013-03-30 19:09:00,43.1,29.3,30.11,WNW,300,0.0,1.0,58,0.00,,---,0.00,VWS V13.01,2013-03-30 23:09:00,
2013-03-30 19:14:00,42.7,29.4,30.11,WNW,300,0.0,1.0,59,0.00,,---,0.00,VWS V13.01,2013-03-30 23:14:00,
2013-03-30 19:19:00,41.9,30.2,30.11,WNW,299,0.0,1.0,63,0.00,,---,0.00,VWS V13.01,2013-03-30 23:19:00,
2013-03-30 19:24:00,41.5,30.2,30.11,WNW,299,0.0,1.0,64,0.00,,---,0.00,VWS V13.01,2013-03-30 23:24:00,
2013-03-30 19:30:00,41.0,30.1,30.11,WNW,299,0.0,1.0,65,0.00,,---,0.00,VWS V13.01,2013-03-30 23:30:00,
2013-03-30 19:35:00,40.7,31.0,30.11,WNW,300,0.0,0.0,68,0.00,,---,0.00,VWS V13.01,2013-03-30 23:35:00,
2013-03-30 19:40:00,40.2,29.8,30.11,WNW,299,0.0,0.0,66,0.00,,---,0.00,VWS V13.01,2013-03-30 23:40:00,
2013-03-30 19:45:00,39.8,30.8,30.11,WNW,299,0.0,0.0,70,0.00,,---,0.00,VWS V13.01,2013-03-30 23:45:00,
2013-03-30 19:50:00,39.3,29.6,30.11,WNW,300,0.0,0.0,68,0.00,,---,0.00,VWS V13.01,2013-03-30 23:50:00,
2013-03-30 19:56:00,39.0,30.1,30.11,WNW,300,0.0,1.0,70,0.00,,---,0.00,VWS V13.01,2013-03-30 23:56:00,
2013-03-30 20:01:00,38.6,29.7,30.11,WNW,300,0.0,0.0,70,0.00,,---,0.00,VWS V13.01,2013-03-31 00:01:00,
2013-03-30 20:06:00,38.2,30.0,30.11,WNW,300,0.0,0.0,72,0.00,,---,0.00,VWS V13.01,2013-03-31 00:06:00,
2013-03-30 20:11:00,37.9,30.0,30.11,WNW,300,0.0,0.0,73,0.00,,---,0.00,VWS V13.01,2013-03-31 00:11:00,
2013-03-30 20:16:00,37.5,29.6,30.11,WNW,299,0.0,0.0,73,0.00,,---,0.00,VWS V13.01,2013-03-31 00:16:00,
2013-03-30 20:22:00,36.9,30.4,30.11,WNW,299,0.0,0.0,77,0.00,,---,0.00,VWS V13.01,2013-03-31 00:22:00,
2013-03-30 20:27:00,36.5,30.0,30.11,WNW,300,0.0,0.0,77,0.00,,---,0.00,VWS V13.01,2013-03-31 00:27:00,
2013-03-30 20:32:00,36.2,30.3,30.11,WNW,300,0.0,0.0,79,0.00,,---,0.00,VWS V13.01,2013-03-31 00:32:00,
2013-03-30 20:37:00,35.8,30.2,30.12,WNW,299,0.0,0.0,80,0.00,,---,0.00,VWS V13.01,2013-03-31 00:37:00,
2013-03-30 20:42:00,35.5,30.6,30.12,WNW,300,0.0,0.0,82,0.00,,---,0.00,VWS V13.01,2013-03-31 00:42:00,
2013-03-30 20:47:00,35.0,30.4,30.12,WNW,299,0.0,0.0,83,0.00,,---,0.00,VWS V13.01,2013-03-31 00:47:00,
2013-03-30 20:53:00,34.4,30.1,30.11,WNW,299,0.0,0.0,84,0.00,,---,0.00,VWS V13.01,2013-03-31 00:53:00,
2013-03-30 20:58:00,33.9,29.9,30.11,WNW,300,0.0,0.0,85,0.00,,---,0.00,VWS V13.01,2013-03-31 00:58:00,
2013-03-30 21:03:00,33.5,29.5,30.11,WNW,300,0.0,0.0,85,0.00,,---,0.00,VWS V13.01,2013-03-31 01:03:00,
2013-03-30 21:08:00,33.2,28.9,30.11,WNW,300,0.0,0.0,84,0.00,,---,0.00,VWS V13.01,2013-03-31 01:08:00,
2013-03-30 21:13:00,32.9,28.3,30.11,WNW,299,0.0,0.0,83,0.00,,---,0.00,VWS V13.01,2013-03-31 01:13:00,
2013-03-30 21:18:00,32.8,28.2,30.11,WNW,300,0.0,0.0,83,0.00,,---,0.00,VWS V13.01,2013-03-31 01:18:00,
2013-03-30 21:24:00,32.8,28.2,30.11,WNW,300,0.0,0.0,83,0.00,,---,0.00,VWS V13.01,2013-03-31 01:24:00,
2013-03-30 21:29:00,32.6,28.0,30.11,WNW,300,0.0,0.0,83,0.00,,---,0.00,VWS V13.01,2013-03-31 01:29:00,
2013-03-30 21:34:00,32.5,28.5,30.11,WNW,300,0.0,0.0,85,0.00,,---,0.00,VWS V13.01,2013-03-31 01:34:00,
2013-03-30 21:39:00,32.3,28.6,30.11,WNW,299,0.0,0.0,86,0.00,,---,0.00,VWS V13.01,2013-03-31 01:39:00,
2013-03-30 21:44:00,31.9,28.5,30.11,WNW,300,0.0,0.0,87,0.00,,---,0.00,VWS V13.01,2013-03-31 01:44:00,
2013-03-30 21:49:00,31.6,28.2,30.12,WNW,300,0.0,0.0,87,0.00,,---,0.00,VWS V13.01,2013-03-31 01:49:00,
2013-03-30 21:55:00,31.4,28.0,30.11,WNW,299,0.0,0.0,87,0.00,,---,0.00,VWS V13.01,2013-03-31 01:55:00,
2013-03-30 22:00:00,31.3,27.9,30.11,WNW,299,0.0,0.0,87,0.00,,---,0.00,VWS V13.01,2013-03-31 02:00:00,
2013-03-30 22:05:00,31.1,27.7,30.11,WNW,300,0.0,0.0,87,0.00,,---,0.00,VWS V13.01,2013-03-31 02:05:00,
2013-03-30 22:10:00,30.8,27.7,30.11,WNW,299,0.0,0.0,88,0.00,,---,0.00,VWS V13.01,2013-03-31 02:10:00,
2013-03-30 22:15:00,30.6,27.5,30.11,WNW,299,0.0,0.0,88,0.00,,---,0.00,VWS V13.01,2013-03-31 02:15:00,
2013-03-30 22:20:00,30.3,26.9,30.11,WNW,300,0.0,0.0,87,0.00,,---,0.00,VWS V13.01,2013-03-31 02:20:00,
2013-03-30 22:26:00,30.2,27.1,30.11,WNW,299,0.0,0.0,88,0.00,,---,0.00,VWS V13.01,2013-03-31 02:26:00,
2013-03-30 22:31:00,30.0,26.9,30.11,WNW,300,0.0,0.0,88,0.00,,---,0.00,VWS V13.01,2013-03-31 02:31:00,
2013-03-30 22:36:00,29.9,26.8,30.11,WNW,299,0.0,0.0,88,0.00,,---,0.00,VWS V13.01,2013-03-31 02:36:00,
2013-03-30 22:41:00,29.8,26.7,30.10,WNW,300,0.0,0.0,88,0.00,,---,0.00,VWS V13.01,2013-03-31 02:41:00,
2013-03-30 22:46:00,29.8,26.7,30.10,WNW,300,0.0,0.0,88,0.00,,---,0.00,VWS V13.01,2013-03-31 02:46:00,
2013-03-30 22:52:00,29.7,26.6,30.11,WNW,300,0.0,0.0,88,0.00,,---,0.00,VWS V13.01,2013-03-31 02:52:00,
2013-03-30 22:57:00,29.6,26.8,30.11,WNW,300,0.0,0.0,89,0.00,,---,0.00,VWS V13.01,2013-03-31 02:57:00,
2013-03-30 23:02:00,29.4,26.6,30.11,WNW,300,0.0,0.0,89,0.00,,---,0.00,VWS V13.01,2013-03-31 03:02:00,
2013-03-30 23:07:00,29.2,26.4,30.10,WNW,300,0.0,0.0,89,0.00,,---,0.00,VWS V13.01,2013-03-31 03:07:00,
2013-03-30 23:14:00,29.2,26.1,30.10,WNW,299,0.0,0.0,88,0.00,,---,0.00,VWS V13.01,2013-03-31 03:14:00,
2013-03-30 23:19:00,29.2,26.1,30.10,WNW,300,0.0,0.0,88,0.00,,---,0.00,VWS V13.01,2013-03-31 03:19:00,
2013-03-30 23:24:00,29.2,25.8,30.10,WNW,300,0.0,0.0,87,0.00,,---,0.00,VWS V13.01,2013-03-31 03:24:00,
2013-03-30 23:30:00,29.2,25.5,30.10,WNW,300,0.0,0.0,86,0.00,,---,0.00,VWS V13.01,2013-03-31 03:30:00,
2013-03-30 23:35:00,29.2,25.5,30.10,WNW,299,0.0,0.0,86,0.00,,---,0.00,VWS V13.01,2013-03-31 03:35:00,
2013-03-30 23:40:00,29.2,25.5,30.10,WNW,299,0.0,0.0,86,0.00,,---,0.00,VWS V13.01,2013-03-31 03:40:00,
2013-03-30 23:45:00,29.1,25.7,30.10,WNW,299,0.0,0.0,87,0.00,,---,0.00,VWS V13.01,2013-03-31 03:45:00,
2013-03-30 23:50:00,29.1,25.7,30.09,WNW,299,0.0,0.0,87,0.00,,---,0.00,VWS V13.01,2013-03-31 03:50:00,
2013-03-30 23:55:00,29.0,25.6,30.09,WNW,300,0.0,0.0,87,0.00,,---,0.00,VWS V13.01,2013-03-31 03:55:00,